AirNav   Everest Fuels
 
 767 users online  

3F4 Vivian Airport
Vivian, Louisiana, USA

GOING TO VIVIAN?


FAA INFORMATION EFFECTIVE 16 JUNE 2022

Location

FAA Identifier: 3F4
Lat/Long: 32-51-40.8000N 094-00-36.5530W
32-51.680000N 094-00.609217W
32.8613333,-94.0101536
(estimated)
Elevation: 260 ft. / 79.2 m (surveyed)
Variation: 02E (2010)
From city: 2 miles SW of VIVIAN, LA
Time zone: UTC -5 (UTC -6 during Standard Time)
Zip code: 71082

Airport Operations

Airport use: Open to the public
Activation date: 02/1960
Control tower: no
ARTCC: FORT WORTH CENTER
FSS: DE RIDDER FLIGHT SERVICE STATION
NOTAMs facility: DRI (NOTAM-D service available)
Attendance: MON-SAT DAWN-DUSK
Wind indicator: lighted
Segmented circle: no
Lights: MIRL RY 09/27 AND REIL RY 09 PRESET LOW INTST DUSK-DAWN; TO INCR INTST ACTVT - CTAF.
Beacon: white-green (lighted land airport)
Operates sunset to sunrise.

Airport Communications

CTAF/UNICOM: 122.8
SHREVEPORT APPROACH: 119.9
SHREVEPORT DEPARTURE: 119.9
WX AWOS-3 at ATA (17 nm NW): 118.250 (903-799-4066)

Airport Services

Fuel available: 100LL
100LL:FUEL AVBL 24 HRS SELF SVC WITH CREDIT CARD.
Parking: hangars and tiedowns
Airframe service: MAJOR
Powerplant service: MAJOR
Bottled oxygen: NONE
Bulk oxygen: NONE

Runway Information

Runway 9/27

Dimensions: 2998 x 75 ft. / 914 x 23 m
Surface: asphalt, in good condition
Weight bearing capacity: 
Single wheel: 12.0
Runway edge lights: medium intensity
RUNWAY 9  RUNWAY 27
Latitude: 32-51.678283N32-51.681517N
Longitude: 094-00.902067W094-00.316267W
Elevation: 247.0 ft.259.0 ft.
Traffic pattern: leftleft
Runway heading: 088 magnetic, 090 true268 magnetic, 270 true
Markings: nonprecision, in good conditionnonprecision, in good condition
Visual slope indicator: 2-light PAPI on left (3.00 degrees glide path)
RWY 09 PAPI OUT OF SERVICE
Runway end identifier lights: yesyes
Touchdown point: yes, no lightsyes, no lights
Obstructions: 27 ft. trees, 720 ft. from runway, 62 ft. left of centerline, 19:1 slope to clear106 ft. trees, 2392 ft. from runway, 208 ft. right of centerline, 20:1 slope to clear

Airport Ownership and Management from official FAA records

Ownership: Publicly-owned
Owner: TOWN OF VIVIAN
P. O. BOX 832
VIVIAN, LA 71082
Phone 318-375-3856
Manager: MR. MARTY MUSICK
P. O. BOX 648
VIVIAN, LA 71082
Phone (318) 455-5499

Airport Operational Statistics

Aircraft based on the field: 11
Single engine airplanes: 10
Helicopters: 1
    
Aircraft operations: avg 30/day *
73% transient general aviation
27% local general aviation
<1% military
* for 12-month period ending 03 December 2020

Additional Remarks

GCO AVBL ON FREQ 135.075 THRU BAD APCH CTL AND FLT SVCS.
PARACHUTE ACTIVITY INVOF ARPT.
FOR CD IF UNA VIA GCO CTC FORT WORTH ARTCC AT 817-858-7584.

Instrument Procedures

NOTE: All procedures below are presented as PDF files. If you need a reader for these files, you should download the free Adobe Reader.

NOT FOR NAVIGATION. Please procure official charts for flight.
FAA instrument procedures published for use from 16 June 2022 at 0901Z to 14 July 2022 at 0900z.

 
IAPs - Instrument Approach Procedures
RNAV (GPS) RWY 09   download (200KB)
RNAV (GPS) RWY 27   download (182KB)
VOR/DME-A **CHANGED**   download (163KB)
NOTE: Special Take-Off Minimums/Departure Procedures apply   download (116KB)

Other nearby airports with instrument procedures:

KATA - Hall-Miller Municipal Airport (17 nm NW)
KDTN - Shreveport Downtown Airport (23 nm SE)
KASL - Harrison County Airport (25 nm SW)
KSHV - Shreveport Regional Airport (27 nm S)
KBAD - Barksdale Air Force Base (28 nm SE)
 
Loc | Ops | Rwys | IFR | FBO | Links
Com | Nav | Svcs | Stats | Notes
Area around 3F4 (Vivian Airport)
 
Road maps at: MapQuest Bing Google
 
Aerial photo
WARNING: Photo may not be current or correct
Aerial photo of 3F4 (Vivian Airport)
Photo by Carl Hennigan
Taken in May 2007

Do you have a better or more recent aerial photo of Vivian Airport that you would like to share? If so, please send us your photo.

 
Sectional chart

 
Airport distance calculator
Flying to Vivian Airport? Find the distance to fly.

From to 3F4

Sunrise and sunset
Times for 25-Jun-2022
 Local
(UTC-5)
 Zulu
(UTC)
Morning civil twilight05:4210:42
Sunrise06:1011:10
Sunset20:2701:27
Evening civil twilight20:5601:56

Current date and time
Zulu (UTC)  25-Jun-2022 11:49:46
Local (UTC-5)  25-Jun-2022 06:49:46
 
METAR
KATA 
17nm NW 
251135Z AUTO 00000KT 9SM CLR 23/23 A2995 RMK AO2 SLP042 T02310226
KDTN 
23nm SE 
251053Z AUTO 16005KT 10SM CLR 26/23 A2995 RMK AO2 SLP140 T02610228
KASL 
25nm SW 
251135Z AUTO 00000KT 10SM CLR 23/21 A2999 RMK AO1 T02250208
KSHV 
26nm S 
251056Z 00000KT 10SM CLR 24/22 A2995 RMK AO2 SLP137 T02440217 $
KBAD 
28nm SE 
251056Z AUTO 14004KT 10SM CLR 24/22 A2995 RMK AO2 SLP144 T02360218
TAF
KSHV 
26nm S 
250542Z 2506/2606 13003KT P6SM SKC FM251400 21005KT P6SM FEW250 FM260000 VRB05KT P6SM VCTS SCT060CB SCT120 SCT250 FM260300 12006KT P6SM BKN250
KBAD 
28nm SE 
250400Z 2504/2610 VRB05KT 9999 SKC QNH2984INS BECMG 2519/2520 VRB05KT 9999 VCTS SCT060CB QNH2988INS BECMG 2601/2602 VRB03KT 9999 NSW SKC QNH2990INS TX38/2521Z TN24/2511Z LAST NO AMDS AFT 2504 NEXT 2512
NOTAMs
Click for the latest NOTAMs
NOTAMs are issued by the DoD/FAA and will open in a separate window not controlled by AirNav.

 

 
 

FBO, Fuel Providers, and Aircraft Ground Support

  
 Business Name 
 
 Contact 
 
 Services / Description 
 
Fuel Prices
 
Comments
  
 Town of Vivian
318-375-3856
[web site]
Airport management, Aviation fuel, Aircraft parking (ramp or tiedown), Hangars, Hangar leasing / sales, Passenger terminal and lounge, Aircraft maintenance, Restrooms

More info about Town of Vivian
Titan
100LL
SS $6.19 
GUARANTEED
 
   write
SS=Self service
Update Fuel Prices
 

Would you like to see your business listed on this page?

 If your business provides an interesting product or service to pilots, flight crews, aircraft, or users of the Vivian Airport, you should consider listing it here.  To start the listing process, click on the button below
 
Add a business
 

Other Pages about Vivian Airport

townofvivian.us/airport
 
Update a link
 
Copyright © AirNav, LLC. All rights reserved. Privacy Policy  Contact